Time;durP1;ratioP1;P1;durP2;ratioP2;P2;SDS_P1;SDS_P2;PMS_P1;PMS_P2;Temp;Humidity;BMP_temperature;BMP_pressure;BME280_temperature;BME280_humidity;BME280_pressure;Samples;Min_cycle;Max_cycle;Signal;HPM_P1;HPM_P2
2023/12/01 00:00:45;;;;;;;45.27;27.43;;;2.70;99.90;;;;;;4916442;29;20203;-81
2023/12/01 00:03:12;;;;;;;44.20;26.80;;;2.60;99.90;;;;;;4918475;29;20207;-82
2023/12/01 00:05:40;;;;;;;45.63;27.07;;;2.70;99.90;;;;;;4917428;29;20241;-82
2023/12/01 00:08:08;;;;;;;47.30;28.07;;;2.50;99.90;;;;;;4914695;29;20219;-82
2023/12/01 00:10:36;;;;;;;46.77;26.70;;;2.70;99.90;;;;;;4918297;29;20211;-81
2023/12/01 00:13:03;;;;;;;47.53;28.60;;;2.60;99.90;;;;;;4910259;29;20212;-82
2023/12/01 00:15:31;;;;;;;43.87;25.77;;;2.70;99.90;;;;;;4911673;29;20325;-82
2023/12/01 00:18:00;;;;;;;48.57;26.93;;;2.60;99.90;;;;;;4907088;29;20198;-81
2023/12/01 00:20:27;;;;;;;42.23;24.20;;;2.60;99.90;;;;;;4918062;29;20205;-81
2023/12/01 00:22:54;;;;;;;46.63;27.13;;;2.70;99.90;;;;;;4913820;29;20235;-82
2023/12/01 00:25:22;;;;;;;52.43;28.80;;;2.80;99.90;;;;;;4920989;29;20684;-82
2023/12/01 00:27:49;;;;;;;49.00;27.73;;;2.70;99.90;;;;;;4907011;29;20223;-82
2023/12/01 00:30:17;;;;;;;45.77;26.97;;;2.60;99.90;;;;;;4918485;29;20204;-81
2023/12/01 00:32:44;;;;;;;47.07;27.43;;;2.60;99.90;;;;;;4911207;29;20214;-82
2023/12/01 00:35:13;;;;;;;46.17;27.47;;;2.60;99.90;;;;;;4913188;29;20223;-82
2023/12/01 00:37:41;;;;;;;53.20;27.67;;;2.60;99.90;;;;;;4922606;29;20203;-82
2023/12/01 00:40:10;;;;;;;46.17;26.80;;;2.60;99.90;;;;;;4921489;29;20193;-82
2023/12/01 00:42:37;;;;;;;46.80;26.00;;;2.60;99.90;;;;;;4905255;29;20201;-81
2023/12/01 00:45:05;;;;;;;48.87;27.07;;;2.50;99.90;;;;;;4905116;29;20584;-82
2023/12/01 00:47:33;;;;;;;46.90;26.20;;;2.60;99.90;;;;;;4917891;29;20199;-81
2023/12/01 00:50:01;;;;;;;49.83;27.00;;;2.60;99.90;;;;;;4919998;29;20208;-81
2023/12/01 00:52:29;;;;;;;49.83;27.77;;;2.80;99.90;;;;;;4912408;29;20199;-82
2023/12/01 00:54:57;;;;;;;47.73;27.57;;;2.60;99.90;;;;;;4927233;29;20222;-82
2023/12/01 00:57:24;;;;;;;47.30;26.57;;;2.50;99.90;;;;;;4925003;29;20204;-81
2023/12/01 00:59:52;;;;;;;49.33;27.30;;;2.60;99.90;;;;;;4924966;29;20185;-82
2023/12/01 01:02:20;;;;;;;41.50;24.97;;;2.50;99.90;;;;;;4922075;29;20207;-82
2023/12/01 01:04:47;;;;;;;46.63;26.27;;;2.60;99.90;;;;;;4916931;29;20234;-82
2023/12/01 01:07:14;;;;;;;46.37;26.20;;;2.50;99.90;;;;;;4910918;29;20196;-82
2023/12/01 01:09:43;;;;;;;51.23;27.03;;;2.60;99.90;;;;;;4912137;29;20224;-83
2023/12/01 01:12:11;;;;;;;51.07;25.97;;;2.70;99.90;;;;;;4919233;29;20225;-82
2023/12/01 01:14:38;;;;;;;45.60;27.03;;;2.60;99.90;;;;;;4917547;29;20237;-82
2023/12/01 01:17:06;;;;;;;44.67;25.40;;;2.60;99.90;;;;;;4917612;29;20208;-81
2023/12/01 01:19:34;;;;;;;46.77;26.13;;;2.80;99.90;;;;;;4914107;29;20556;-80
2023/12/01 01:22:01;;;;;;;46.27;25.77;;;2.70;1.00;;;;;;4915422;29;20205;-80
2023/12/01 01:24:28;;;;;;;47.07;27.07;;;2.60;1.00;;;;;;4914906;29;20202;-80
2023/12/01 01:26:58;;;;;;;43.60;24.80;;;2.70;1.00;;;;;;4921659;29;20587;-80
2023/12/01 01:29:25;;;;;;;45.57;26.03;;;2.60;1.00;;;;;;4924538;29;20216;-80
2023/12/01 01:31:53;;;;;;;45.50;26.23;;;2.70;1.00;;;;;;4920254;29;20208;-81
2023/12/01 01:34:20;;;;;;;45.13;23.70;;;2.80;99.90;;;;;;4913609;29;20204;-82
2023/12/01 01:36:47;;;;;;;42.67;23.87;;;2.80;1.00;;;;;;4923219;29;20204;-82
2023/12/01 01:39:15;;;;;;;47.10;25.87;;;2.70;99.90;;;;;;4914131;29;20192;-83
2023/12/01 01:41:42;;;;;;;43.97;23.97;;;3.00;99.90;;;;;;4926308;29;20218;-83
2023/12/01 01:44:11;;;;;;;42.60;23.17;;;3.10;99.90;;;;;;4914592;29;20191;-82
2023/12/01 01:46:40;;;;;;;36.33;21.90;;;3.20;99.90;;;;;;4920558;29;20691;-82
2023/12/01 01:49:07;;;;;;;40.43;21.63;;;3.20;99.90;;;;;;4919537;29;20218;-82
2023/12/01 01:51:36;;;;;;;38.27;22.90;;;3.00;99.90;;;;;;4921510;29;20191;-82
2023/12/01 01:54:03;;;;;;;37.57;22.10;;;3.10;99.90;;;;;;4920874;29;20205;-82
2023/12/01 01:56:33;;;;;;;40.40;22.63;;;3.10;99.90;;;;;;4925054;29;20227;-82
2023/12/01 01:59:00;;;;;;;39.50;22.27;;;3.00;99.90;;;;;;4914462;29;20203;-82
2023/12/01 02:01:29;;;;;;;39.83;23.87;;;3.20;99.90;;;;;;4931989;29;20202;-83
2023/12/01 02:03:57;;;;;;;39.10;22.50;;;3.30;99.90;;;;;;4923759;29;20211;-83
2023/12/01 02:06:30;;;;;;;39.73;22.33;;;3.10;99.90;;;;;;4912912;29;20703;-82
2023/12/01 02:08:58;;;;;;;41.97;22.93;;;3.20;99.90;;;;;;4921929;29;20228;-83
2023/12/01 02:11:26;;;;;;;40.17;23.20;;;3.20;99.90;;;;;;4923812;29;20195;-82
2023/12/01 02:13:54;;;;;;;44.17;23.17;;;3.10;99.90;;;;;;4930407;29;20202;-82
2023/12/01 02:16:21;;;;;;;43.43;23.50;;;3.00;99.90;;;;;;4920703;29;20217;-82
2023/12/01 02:18:54;;;;;;;41.13;22.57;;;3.10;99.90;;;;;;4922093;29;20563;-82
2023/12/01 02:21:24;;;;;;;37.63;22.03;;;3.10;99.90;;;;;;4913271;29;20210;-83
2023/12/01 02:23:53;;;;;;;39.70;22.77;;;3.20;99.90;;;;;;4921012;29;20202;-83
2023/12/01 02:26:22;;;;;;;39.07;22.73;;;3.20;99.90;;;;;;4910568;29;20219;-82
2023/12/01 02:28:50;;;;;;;37.87;22.37;;;3.10;99.90;;;;;;4920442;29;20669;-82
2023/12/01 02:31:18;;;;;;;40.67;23.57;;;3.10;99.90;;;;;;4912522;29;20203;-82
2023/12/01 02:33:45;;;;;;;41.63;23.17;;;3.10;99.90;;;;;;4923441;29;20222;-82
2023/12/01 02:36:14;;;;;;;40.77;23.30;;;3.10;99.90;;;;;;4910160;29;20223;-82
2023/12/01 02:38:41;;;;;;;41.63;24.27;;;3.20;99.90;;;;;;4921667;29;20204;-82
2023/12/01 02:41:10;;;;;;;40.07;23.07;;;3.30;99.90;;;;;;4910496;29;20196;-82
2023/12/01 02:43:38;;;;;;;40.83;23.50;;;3.10;99.90;;;;;;4913125;29;20277;-82
2023/12/01 02:46:06;;;;;;;44.47;25.07;;;3.10;99.90;;;;;;4912440;29;20736;-82
2023/12/01 02:48:33;;;;;;;43.07;23.67;;;3.10;99.90;;;;;;4914071;29;20207;-82
2023/12/01 02:51:01;;;;;;;40.53;23.37;;;3.20;99.90;;;;;;4931153;29;20203;-82
2023/12/01 02:53:28;;;;;;;41.43;24.33;;;3.10;99.90;;;;;;4912452;29;20207;-82
2023/12/01 02:55:56;;;;;;;44.47;24.70;;;3.00;99.90;;;;;;4911291;29;20223;-82
2023/12/01 02:58:25;;;;;;;43.00;23.80;;;2.90;99.90;;;;;;4919623;29;20204;-82
2023/12/01 03:00:53;;;;;;;41.33;24.37;;;2.90;99.90;;;;;;4920463;29;20191;-82
2023/12/01 03:03:20;;;;;;;43.93;24.63;;;3.00;99.90;;;;;;4919636;29;20204;-83
2023/12/01 03:05:48;;;;;;;36.90;22.20;;;2.80;99.90;;;;;;4918876;29;20222;-81
2023/12/01 03:08:15;;;;;;;42.50;24.13;;;3.00;99.90;;;;;;4907783;28;20204;-82
2023/12/01 03:10:43;;;;;;;40.03;23.37;;;3.10;99.90;;;;;;4918235;29;20228;-82
2023/12/01 03:13:10;;;;;;;39.97;22.73;;;3.00;99.90;;;;;;4916544;29;20202;-80
2023/12/01 03:15:40;;;;;;;38.13;20.70;;;3.00;99.90;;;;;;4921115;29;20228;-82
2023/12/01 03:18:08;;;;;;;35.97;20.70;;;3.10;99.90;;;;;;4933371;29;20193;-82
2023/12/01 03:20:35;;;;;;;32.17;19.73;;;3.10;99.90;;;;;;4907800;29;20196;-82
2023/12/01 03:23:03;;;;;;;31.73;18.77;;;3.20;99.90;;;;;;4915565;29;20206;-83
2023/12/01 03:25:30;;;;;;;32.13;18.87;;;3.20;99.90;;;;;;4910623;29;20215;-82
2023/12/01 03:27:58;;;;;;;32.13;18.33;;;3.00;99.90;;;;;;4921123;29;20198;-83
2023/12/01 03:30:25;;;;;;;31.03;18.23;;;3.10;99.90;;;;;;4930837;29;20225;-82
2023/12/01 03:32:55;;;;;;;31.83;19.40;;;3.10;99.90;;;;;;4929979;29;20198;-83
2023/12/01 03:35:24;;;;;;;31.13;18.60;;;3.00;99.90;;;;;;4912468;29;20215;-82
2023/12/01 03:37:55;;;;;;;34.53;18.87;;;3.00;99.90;;;;;;4934121;29;20215;-82
2023/12/01 03:40:23;;;;;;;33.83;18.10;;;3.00;99.90;;;;;;4918682;29;20209;-82
2023/12/01 03:42:51;;;;;;;35.53;19.93;;;2.90;99.90;;;;;;4921751;29;20214;-82
2023/12/01 03:45:19;;;;;;;33.53;19.77;;;2.90;99.90;;;;;;4914431;29;20235;-83
2023/12/01 03:47:48;;;;;;;36.97;21.17;;;2.80;99.90;;;;;;4935066;29;20199;-82
2023/12/01 03:50:18;;;;;;;37.03;19.83;;;2.70;99.90;;;;;;4938671;28;20214;-82
2023/12/01 03:52:47;;;;;;;38.77;20.97;;;2.70;99.90;;;;;;4915532;29;20660;-82
2023/12/01 03:55:15;;;;;;;34.40;20.17;;;2.80;99.90;;;;;;4912579;29;20594;-83
2023/12/01 03:57:44;;;;;;;38.53;22.43;;;2.80;99.90;;;;;;4914702;29;20303;-82
2023/12/01 04:00:16;;;;;;;33.17;19.93;;;2.90;99.90;;;;;;4910772;29;20194;-82
2023/12/01 04:02:45;;;;;;;36.77;20.23;;;2.90;99.90;;;;;;4907442;29;20208;-82
2023/12/01 04:05:17;;;;;;;33.10;20.43;;;3.00;99.90;;;;;;4911671;29;20217;-81
2023/12/01 04:07:50;;;;;;;36.27;20.67;;;3.00;99.90;;;;;;4916434;29;20204;-80
2023/12/01 04:10:17;;;;;;;34.20;19.03;;;3.00;99.90;;;;;;4916950;29;20222;-80
2023/12/01 04:12:47;;;;;;;32.80;19.53;;;3.10;99.90;;;;;;4927590;29;20199;-80
2023/12/01 04:15:17;;;;;;;34.70;20.57;;;3.10;99.90;;;;;;4919802;28;20233;-80
2023/12/01 04:17:47;;;;;;;35.73;22.27;;;3.10;99.90;;;;;;4920739;29;20211;-80
2023/12/01 04:20:22;;;;;;;32.57;20.60;;;3.00;99.90;;;;;;4907306;29;20204;-80
2023/12/01 04:22:53;;;;;;;34.10;20.53;;;2.70;99.90;;;;;;4924464;29;20204;-83
2023/12/01 04:25:21;;;;;;;33.80;19.70;;;2.50;99.90;;;;;;4918401;29;20223;-82
2023/12/01 04:27:48;;;;;;;29.37;18.57;;;2.30;99.90;;;;;;4915173;29;20208;-79
2023/12/01 04:30:17;;;;;;;29.17;18.43;;;2.40;99.90;;;;;;4921459;28;20207;-80
2023/12/01 04:32:46;;;;;;;31.63;17.57;;;2.30;99.90;;;;;;4910993;29;20202;-80
2023/12/01 04:35:15;;;;;;;31.50;18.13;;;2.40;99.90;;;;;;4914311;29;20221;-80
2023/12/01 04:37:43;;;;;;;27.00;16.17;;;2.40;99.90;;;;;;4911766;29;20206;-80
2023/12/01 04:40:14;;;;;;;22.90;14.47;;;2.30;99.90;;;;;;4909776;29;20203;-80
2023/12/01 04:42:44;;;;;;;16.77;12.13;;;2.30;99.90;;;;;;4921933;29;20218;-80
2023/12/01 04:45:12;;;;;;;17.50;10.73;;;2.20;99.90;;;;;;4906419;29;20223;-80
2023/12/01 04:47:41;;;;;;;16.90;12.20;;;2.10;99.90;;;;;;4918678;29;20196;-80
2023/12/01 04:50:13;;;;;;;20.70;12.53;;;2.10;99.90;;;;;;4908036;29;20229;-83
2023/12/01 04:52:44;;;;;;;18.37;12.57;;;2.10;99.90;;;;;;4909439;29;20201;-83
2023/12/01 04:55:14;;;;;;;22.10;13.43;;;2.30;99.90;;;;;;4912057;29;20238;-83
2023/12/01 04:57:43;;;;;;;18.57;12.90;;;2.30;99.90;;;;;;4920356;29;20279;-83
2023/12/01 05:00:19;;;;;;;19.63;12.60;;;2.20;99.90;;;;;;4912898;29;20202;-80
2023/12/01 05:02:48;;;;;;;20.63;13.33;;;2.30;99.90;;;;;;4911883;29;20203;-81
2023/12/01 05:05:17;;;;;;;24.13;14.00;;;2.40;99.90;;;;;;4906468;29;20233;-80
2023/12/01 05:07:45;;;;;;;24.30;13.37;;;2.40;99.90;;;;;;4920880;29;20207;-80
2023/12/01 05:10:17;;;;;;;24.30;13.97;;;2.40;99.90;;;;;;4931803;29;20231;-80
2023/12/01 05:12:46;;;;;;;23.53;14.40;;;2.40;99.90;;;;;;4913754;29;20210;-80
2023/12/01 05:15:17;;;;;;;25.90;15.50;;;2.50;99.90;;;;;;4912865;29;20219;-79
2023/12/01 05:17:46;;;;;;;24.93;15.07;;;2.50;99.90;;;;;;4914298;29;20203;-80
2023/12/01 05:20:17;;;;;;;24.93;14.43;;;2.50;99.90;;;;;;4915982;29;20203;-80
2023/12/01 05:22:46;;;;;;;23.97;14.13;;;2.50;99.90;;;;;;4923605;29;20205;-81
2023/12/01 05:25:18;;;;;;;27.47;14.47;;;2.30;99.90;;;;;;4920637;28;20221;-81
2023/12/01 05:27:46;;;;;;;27.70;14.93;;;2.10;99.90;;;;;;4917029;29;20213;-80
2023/12/01 05:30:15;;;;;;;30.03;16.43;;;2.10;99.90;;;;;;4924780;29;20213;-80
2023/12/01 05:32:44;;;;;;;30.40;15.40;;;2.00;99.90;;;;;;4924715;29;20213;-79
2023/12/01 05:35:13;;;;;;;27.60;16.10;;;2.10;99.90;;;;;;4920720;29;20224;-80
2023/12/01 05:37:41;;;;;;;28.53;15.10;;;2.10;99.90;;;;;;4926890;29;20209;-80
2023/12/01 05:40:10;;;;;;;28.63;15.57;;;2.10;99.90;;;;;;4912968;29;20195;-80
2023/12/01 05:42:41;;;;;;;28.23;15.37;;;2.20;99.90;;;;;;4923166;29;20216;-81
2023/12/01 05:45:11;;;;;;;27.80;14.80;;;2.30;99.90;;;;;;4916223;29;20223;-81
2023/12/01 05:47:43;;;;;;;30.43;16.37;;;2.10;99.90;;;;;;4931219;29;20184;-81
2023/12/01 05:50:13;;;;;;;29.10;16.90;;;2.00;99.90;;;;;;4916624;29;20208;-81
2023/12/01 05:52:42;;;;;;;31.20;17.13;;;2.10;99.90;;;;;;4916617;29;20203;-81
2023/12/01 05:55:14;;;;;;;37.07;18.90;;;2.00;99.90;;;;;;4920563;29;20227;-80
2023/12/01 05:57:44;;;;;;;30.93;16.67;;;2.00;99.90;;;;;;4924693;29;20586;-80
2023/12/01 06:00:15;;;;;;;32.37;17.53;;;2.00;99.90;;;;;;4959674;23;20217;-79
2023/12/01 06:02:44;;;;;;;34.87;18.70;;;2.10;99.90;;;;;;4962910;29;20208;-79
2023/12/01 06:05:12;;;;;;;34.53;18.73;;;2.20;99.90;;;;;;4947245;29;20202;-79
2023/12/01 06:07:43;;;;;;;36.40;19.67;;;2.20;99.90;;;;;;4927377;29;20220;-79
2023/12/01 06:10:14;;;;;;;34.13;18.50;;;2.20;99.90;;;;;;4942427;29;20231;-80
2023/12/01 06:12:48;;;;;;;32.13;18.30;;;2.10;99.90;;;;;;4926664;29;20209;-80
2023/12/01 06:15:19;;;;;;;35.43;19.90;;;2.20;99.90;;;;;;4924575;29;20214;-80
2023/12/01 06:17:48;;;;;;;38.47;18.63;;;2.20;99.90;;;;;;4926727;29;20223;-80
2023/12/01 06:20:19;;;;;;;37.90;20.10;;;2.20;99.90;;;;;;4946754;28;20261;-80
2023/12/01 06:22:48;;;;;;;26.00;13.83;;;2.20;99.90;;;;;;4921199;29;20192;-79
2023/12/01 06:25:16;;;;;;;33.60;18.27;;;3.70;99.90;;;;;;4917358;29;20195;-80
2023/12/01 06:27:48;;;;;;;34.57;19.83;;;3.60;99.90;;;;;;4929965;29;20553;-80
2023/12/01 06:37:37;;;;;;;35.80;18.10;;;2.30;99.90;;;;;;4894596;29;20198;-79
2023/12/01 06:40:12;;;;;;;32.57;18.57;;;2.10;99.90;;;;;;4925841;29;20590;-79
2023/12/01 06:42:50;;;;;;;33.93;18.30;;;2.10;99.90;;;;;;4933566;29;20188;-80
2023/12/01 06:45:18;;;;;;;33.33;19.07;;;2.10;1.00;;;;;;4912267;29;20215;-80
2023/12/01 06:47:52;;;;;;;31.57;18.03;;;2.00;1.00;;;;;;4925131;29;20211;-80
2023/12/01 06:50:23;;;;;;;33.67;19.40;;;2.10;1.00;;;;;;4923981;29;20232;-80
2023/12/01 06:52:59;;;;;;;34.87;19.87;;;2.10;1.00;;;;;;4930497;29;20235;-79
2023/12/01 06:55:31;;;;;;;33.27;19.33;;;2.10;1.00;;;;;;4925284;29;20203;-80
2023/12/01 06:58:10;;;;;;;32.87;18.23;;;2.00;1.00;;;;;;4927018;29;20209;-80
2023/12/01 07:00:38;;;;;;;43.37;22.23;;;2.10;1.00;;;;;;4938725;29;20231;-79
2023/12/01 07:03:07;;;;;;;50.03;24.30;;;2.10;99.90;;;;;;4938606;29;20200;-81
2023/12/01 07:05:37;;;;;;;45.43;24.17;;;2.20;99.90;;;;;;4922864;29;20191;-81
2023/12/01 07:08:13;;;;;;;47.23;25.37;;;2.10;99.90;;;;;;4922383;29;20210;-81
2023/12/01 07:10:42;;;;;;;46.23;23.93;;;2.10;99.90;;;;;;4921010;29;20229;-81
2023/12/01 07:13:13;;;;;;;45.67;23.60;;;2.10;99.90;;;;;;4928705;29;20206;-81
2023/12/01 07:15:40;;;;;;;42.67;22.90;;;2.20;99.90;;;;;;4921643;29;20211;-81
2023/12/01 07:18:09;;;;;;;43.20;22.93;;;2.30;99.90;;;;;;4938541;29;20198;-81
2023/12/01 07:20:36;;;;;;;44.03;23.17;;;2.40;99.90;;;;;;4922288;29;20238;-81
2023/12/01 07:23:05;;;;;;;47.80;24.07;;;2.40;99.90;;;;;;4925296;29;20199;-81
2023/12/01 07:25:32;;;;;;;45.10;22.63;;;2.50;99.90;;;;;;4937056;29;20217;-80
2023/12/01 07:28:02;;;;;;;47.73;23.87;;;2.30;99.90;;;;;;4918124;29;20206;-82
2023/12/01 07:30:32;;;;;;;43.80;23.93;;;2.20;99.90;;;;;;4926057;29;20225;-81
2023/12/01 07:33:01;;;;;;;40.30;20.80;;;2.20;99.90;;;;;;4942754;29;20232;-81
2023/12/01 07:35:28;;;;;;;46.30;23.17;;;2.40;99.90;;;;;;4934739;29;20674;-81
2023/12/01 07:37:55;;;;;;;40.17;20.87;;;2.40;99.90;;;;;;4917213;29;20209;-81
2023/12/01 07:40:24;;;;;;;43.57;21.57;;;2.40;99.90;;;;;;4924358;29;20212;-81
2023/12/01 07:42:53;;;;;;;39.47;21.97;;;2.30;99.90;;;;;;4926246;29;20209;-81
2023/12/01 07:45:21;;;;;;;35.73;20.67;;;2.40;99.90;;;;;;4923898;29;20195;-82
2023/12/01 07:47:52;;;;;;;42.90;21.53;;;2.40;99.90;;;;;;4926416;29;20190;-82
2023/12/01 07:50:21;;;;;;;37.60;21.00;;;2.40;99.90;;;;;;4923345;29;20229;-81
2023/12/01 07:52:49;;;;;;;37.10;20.80;;;2.20;99.90;;;;;;4932320;29;20226;-81
2023/12/01 07:55:18;;;;;;;41.30;21.00;;;2.10;99.90;;;;;;4928391;29;20212;-82
2023/12/01 07:57:46;;;;;;;36.50;21.93;;;2.10;99.90;;;;;;4939982;29;20207;-82
2023/12/01 08:00:16;;;;;;;39.30;20.07;;;2.30;99.90;;;;;;4923344;29;20242;-82
2023/12/01 08:02:44;;;;;;;41.40;22.17;;;2.30;99.90;;;;;;4932031;29;20206;-82
2023/12/01 08:05:14;;;;;;;39.67;20.00;;;2.40;99.90;;;;;;4919439;29;20199;-83
2023/12/01 08:07:43;;;;;;;38.60;20.70;;;2.50;99.90;;;;;;4923399;29;20206;-82
2023/12/01 08:10:15;;;;;;;42.43;21.83;;;2.60;99.90;;;;;;4927278;29;20226;-81
2023/12/01 08:12:42;;;;;;;40.90;22.03;;;2.50;99.90;;;;;;4922964;29;20231;-81
2023/12/01 08:15:12;;;;;;;43.17;23.40;;;2.60;99.90;;;;;;4925876;29;20205;-81
2023/12/01 08:17:40;;;;;;;46.50;21.90;;;2.60;99.90;;;;;;4925067;29;20208;-82
2023/12/01 08:20:08;;;;;;;41.23;22.20;;;2.50;99.90;;;;;;4938028;29;20223;-81
2023/12/01 08:22:38;;;;;;;37.73;21.43;;;2.50;99.90;;;;;;4922130;29;20692;-81
2023/12/01 08:25:07;;;;;;;34.40;20.40;;;2.60;99.90;;;;;;4927206;29;20205;-80
2023/12/01 08:27:37;;;;;;;35.07;19.43;;;2.50;99.90;;;;;;4928161;29;20206;-81
2023/12/01 08:30:06;;;;;;;36.03;19.77;;;2.60;99.90;;;;;;4930191;29;20223;-81
2023/12/01 08:32:33;;;;;;;36.37;19.50;;;2.20;99.90;;;;;;4920257;29;20226;-81
2023/12/01 08:35:01;;;;;;;37.73;21.83;;;2.20;99.90;;;;;;4919014;29;20219;-80
2023/12/01 08:37:36;;;;;;;37.00;20.23;;;2.30;99.90;;;;;;4933962;29;20194;-82
2023/12/01 08:40:08;;;;;;;39.57;20.57;;;2.20;99.90;;;;;;4924987;29;20257;-82
2023/12/01 08:42:36;;;;;;;40.83;20.83;;;2.30;99.90;;;;;;4929199;29;20191;-81
2023/12/01 08:45:03;;;;;;;40.67;22.37;;;2.40;99.90;;;;;;4932078;29;20202;-81
2023/12/01 08:47:31;;;;;;;34.10;19.93;;;2.30;99.90;;;;;;4928033;29;20658;-81
2023/12/01 08:49:58;;;;;;;36.03;20.20;;;2.40;99.90;;;;;;4930409;29;20218;-80
2023/12/01 08:52:26;;;;;;;37.70;21.23;;;2.50;99.90;;;;;;4932734;29;20292;-81
2023/12/01 08:54:55;;;;;;;34.67;20.20;;;2.50;99.90;;;;;;4921629;29;20208;-80
2023/12/01 08:57:22;;;;;;;35.23;20.33;;;2.50;99.90;;;;;;4928137;29;20212;-79
2023/12/01 08:59:50;;;;;;;37.03;19.83;;;2.50;99.90;;;;;;4927580;29;20248;-80
2023/12/01 09:02:17;;;;;;;39.17;21.97;;;2.40;99.90;;;;;;4926262;29;20198;-81
2023/12/01 09:04:46;;;;;;;36.03;20.80;;;2.30;99.90;;;;;;4923849;29;20216;-80
2023/12/01 09:07:14;;;;;;;38.20;22.20;;;2.30;99.90;;;;;;4924597;29;20684;-81
2023/12/01 09:09:41;;;;;;;38.77;20.70;;;2.20;99.90;;;;;;4935765;29;20219;-81
2023/12/01 09:12:10;;;;;;;30.80;19.57;;;2.30;99.90;;;;;;4931046;29;20207;-81
2023/12/01 09:14:38;;;;;;;35.90;19.77;;;2.10;99.90;;;;;;4931288;29;20207;-81
2023/12/01 09:17:05;;;;;;;31.63;19.53;;;2.30;99.90;;;;;;4928035;29;20208;-80
2023/12/01 09:19:33;;;;;;;30.93;19.53;;;2.20;99.90;;;;;;4934324;29;20248;-80
2023/12/01 09:22:00;;;;;;;32.87;19.00;;;2.20;99.90;;;;;;4934992;29;20222;-80
2023/12/01 09:24:28;;;;;;;36.00;19.73;;;2.20;99.90;;;;;;4956361;29;20212;-80
2023/12/01 09:26:55;;;;;;;32.53;19.73;;;2.30;99.90;;;;;;4928127;29;20660;-81
2023/12/01 09:29:24;;;;;;;37.23;20.70;;;2.30;99.90;;;;;;4932898;29;20227;-81
2023/12/01 09:31:53;;;;;;;37.60;20.23;;;2.40;99.90;;;;;;4930840;29;20224;-80
2023/12/01 09:34:20;;;;;;;31.80;19.20;;;2.20;99.90;;;;;;4933554;29;20214;-80
2023/12/01 09:36:47;;;;;;;34.77;20.27;;;2.10;99.90;;;;;;4930293;29;20216;-80
2023/12/01 09:39:16;;;;;;;34.57;19.43;;;2.10;99.90;;;;;;4932196;29;20578;-79
2023/12/01 09:41:44;;;;;;;30.57;19.83;;;2.40;99.90;;;;;;4931939;29;20211;-81
2023/12/01 09:44:11;;;;;;;33.07;19.27;;;2.00;99.90;;;;;;4925008;29;20214;-80
2023/12/01 09:46:40;;;;;;;36.17;21.77;;;1.70;99.90;;;;;;4923815;29;20213;-80
2023/12/01 09:49:08;;;;;;;34.00;20.83;;;2.00;99.90;;;;;;4932248;29;20213;-80
2023/12/01 09:51:36;;;;;;;37.13;21.27;;;2.30;99.90;;;;;;4922108;29;20206;-80
2023/12/01 09:54:04;;;;;;;35.47;20.30;;;2.30;99.90;;;;;;4911269;29;20220;-80
2023/12/01 09:56:32;;;;;;;35.83;19.40;;;2.40;99.90;;;;;;4924939;29;20212;-80
2023/12/01 09:59:00;;;;;;;33.63;19.27;;;2.10;99.90;;;;;;4924681;29;20241;-80
2023/12/01 10:01:28;;;;;;;31.73;17.83;;;2.00;99.90;;;;;;4941458;29;20199;-80
2023/12/01 10:03:57;;;;;;;31.53;18.87;;;2.20;99.90;;;;;;4920063;29;20194;-79
2023/12/01 10:06:24;;;;;;;30.00;18.07;;;2.20;99.90;;;;;;4945611;29;20211;-79
2023/12/01 10:08:52;;;;;;;29.80;16.67;;;2.30;99.90;;;;;;4933069;29;20239;-79
2023/12/01 10:11:21;;;;;;;29.60;17.73;;;2.20;99.90;;;;;;4931216;29;20207;-79
2023/12/01 10:13:53;;;;;;;30.90;17.70;;;2.30;99.90;;;;;;4922823;29;20233;-79
2023/12/01 10:16:21;;;;;;;27.47;16.50;;;2.30;99.90;;;;;;4916862;29;20221;-80
2023/12/01 10:19:00;;;;;;;31.47;17.00;;;2.40;99.90;;;;;;4920860;29;20228;-80
2023/12/01 10:21:44;;;;;;;30.57;18.23;;;2.30;99.90;;;;;;4917163;29;20214;-80
2023/12/01 10:24:16;;;;;;;32.90;19.17;;;2.30;99.90;;;;;;4919259;29;20289;-79
2023/12/01 10:26:46;;;;;;;32.83;19.33;;;2.20;99.90;;;;;;4922139;29;20217;-79
2023/12/01 10:29:28;;;;;;;34.87;19.13;;;2.10;99.90;;;;;;4923825;29;20330;-80
2023/12/01 10:32:00;;;;;;;36.17;19.50;;;2.20;99.90;;;;;;4917928;29;20207;-79
2023/12/01 10:34:29;;;;;;;35.93;19.93;;;2.20;99.90;;;;;;4922549;29;20256;-79
2023/12/01 10:36:56;;;;;;;34.20;19.30;;;2.20;99.90;;;;;;4916475;29;20213;-80
2023/12/01 10:39:27;;;;;;;34.10;20.60;;;2.10;99.90;;;;;;4924367;29;20228;-79
2023/12/01 10:41:56;;;;;;;34.23;19.53;;;2.30;99.90;;;;;;4925223;29;20239;-79
2023/12/01 10:44:25;;;;;;;36.87;20.50;;;2.30;99.90;;;;;;4928204;29;20211;-80
2023/12/01 10:46:54;;;;;;;34.03;20.50;;;2.30;99.90;;;;;;4921037;29;20207;-79
2023/12/01 10:49:22;;;;;;;36.80;22.07;;;2.20;99.90;;;;;;4923520;29;20214;-79
2023/12/01 10:51:52;;;;;;;33.17;18.43;;;2.30;99.90;;;;;;4927353;29;20208;-78
2023/12/01 10:54:26;;;;;;;34.50;18.77;;;2.10;99.90;;;;;;4929787;29;20559;-79
2023/12/01 10:57:02;;;;;;;31.30;17.67;;;2.20;99.90;;;;;;4925588;29;20214;-79
2023/12/01 10:59:30;;;;;;;31.13;17.30;;;2.10;99.90;;;;;;4929431;29;20234;-79
2023/12/01 11:02:00;;;;;;;33.03;18.00;;;2.10;99.90;;;;;;4924780;29;20202;-79
2023/12/01 11:04:28;;;;;;;30.43;17.37;;;2.00;99.90;;;;;;4934318;29;20194;-79
2023/12/01 11:07:13;;;;;;;32.07;19.27;;;2.20;99.90;;;;;;4922382;29;20203;-79
2023/12/01 11:10:03;;;;;;;37.60;20.33;;;2.30;99.90;;;;;;4927826;29;20232;-79
2023/12/01 11:12:48;;;;;;;35.80;18.90;;;2.40;99.90;;;;;;4926191;29;20190;-78
2023/12/01 11:15:20;;;;;;;33.97;19.20;;;2.40;99.90;;;;;;4917248;29;20219;-79
2023/12/01 11:17:55;;;;;;;35.33;18.73;;;2.30;99.90;;;;;;4919190;29;20211;-78
2023/12/01 11:20:46;;;;;;;36.10;19.43;;;2.30;99.90;;;;;;4914242;29;20220;-79
2023/12/01 11:23:25;;;;;;;32.47;17.20;;;2.40;99.90;;;;;;4908209;29;20207;-80
2023/12/01 11:26:22;;;;;;;28.37;15.40;;;2.40;99.90;;;;;;4921690;29;20233;-79
2023/12/01 11:28:57;;;;;;;28.93;16.00;;;2.10;99.90;;;;;;4930678;29;20221;-79
2023/12/01 11:31:35;;;;;;;25.93;16.17;;;1.90;99.90;;;;;;4921440;29;20192;-79
2023/12/01 11:34:02;;;;;;;27.03;14.83;;;2.00;99.90;;;;;;4924259;29;20222;-79
2023/12/01 11:36:31;;;;;;;24.57;13.97;;;1.80;99.90;;;;;;4932158;29;20205;-79
2023/12/01 11:39:17;;;;;;;24.97;14.07;;;1.80;99.90;;;;;;4923095;29;20221;-79
2023/12/01 11:41:49;;;;;;;24.97;14.20;;;1.70;99.90;;;;;;4928740;29;20208;-79
2023/12/01 11:44:19;;;;;;;26.73;14.57;;;1.90;99.90;;;;;;4929342;29;20721;-79
2023/12/01 11:46:55;;;;;;;24.53;14.47;;;1.90;99.90;;;;;;4927593;29;20212;-80
2023/12/01 11:49:26;;;;;;;28.83;15.23;;;1.90;99.90;;;;;;4928499;29;20220;-79
2023/12/01 11:51:54;;;;;;;25.83;15.13;;;2.00;99.90;;;;;;4926438;29;20199;-82
2023/12/01 11:54:27;;;;;;;25.30;13.87;;;2.10;99.90;;;;;;4925311;29;20238;-82
2023/12/01 11:56:55;;;;;;;27.27;14.60;;;1.90;99.90;;;;;;4929392;29;20202;-80
2023/12/01 11:59:24;;;;;;;24.23;13.53;;;2.00;99.90;;;;;;4935402;29;20233;-80
2023/12/01 12:01:54;;;;;;;24.53;15.13;;;2.10;99.90;;;;;;4925752;29;20203;-80
2023/12/01 12:04:21;;;;;;;24.03;14.13;;;2.10;99.90;;;;;;4924946;29;20198;-80
2023/12/01 12:07:01;;;;;;;23.17;14.53;;;1.90;99.90;;;;;;4956436;23;20225;-82
2023/12/01 12:09:44;;;;;;;24.17;14.70;;;2.00;99.90;;;;;;4904108;29;20208;-82
2023/12/01 12:15:16;;;;;;;29.80;16.20;;;2.00;99.90;;;;;;4914694;29;20205;-82
2023/12/01 12:17:51;;;;;;;22.73;13.57;;;2.00;99.90;;;;;;4917484;29;20197;-82
2023/12/01 12:20:24;;;;;;;29.67;15.40;;;2.00;99.90;;;;;;4909833;29;20205;-82
2023/12/01 12:23:40;;;;;;;24.93;13.77;;;2.00;99.90;;;;;;4917048;29;20216;-82
2023/12/01 12:29:06;;;;;;;21.13;14.67;;;2.00;99.90;;;;;;4920154;29;20200;-82
2023/12/01 12:38:00;;;;;;;21.07;13.23;;;2.20;99.90;;;;;;5084237;23;20244;-82
2023/12/01 12:40:34;;;;;;;24.67;13.47;;;2.10;99.90;;;;;;4939515;29;20205;-82
2023/12/01 12:43:13;;;;;;;22.20;13.77;;;2.00;99.90;;;;;;4934111;29;20205;-82
2023/12/01 12:46:05;;;;;;;21.97;13.40;;;2.10;99.90;;;;;;4921618;29;20232;-82
2023/12/01 12:51:43;;;;;;;20.17;12.87;;;2.00;99.90;;;;;;4914911;29;20224;-82
2023/12/01 12:54:15;;;;;;;23.67;13.57;;;2.00;99.90;;;;;;4917994;29;20305;-83
2023/12/01 12:56:57;;;;;;;26.03;14.77;;;2.00;99.90;;;;;;4913760;29;20233;-83
2023/12/01 13:03:22;;;;;;;22.10;13.93;;;2.00;99.90;;;;;;4876435;29;20212;-83
2023/12/01 13:05:50;;;;;;;22.23;13.53;;;2.00;99.90;;;;;;4929538;29;20234;-82
2023/12/01 13:08:21;;;;;;;25.67;14.97;;;2.00;99.90;;;;;;4918092;29;20211;-83
2023/12/01 13:10:49;;;;;;;24.83;14.37;;;2.00;99.90;;;;;;4918853;29;20208;-82
2023/12/01 13:13:17;;;;;;;23.63;15.20;;;2.00;99.90;;;;;;4921317;29;20365;-82
2023/12/01 13:15:44;;;;;;;24.23;14.03;;;2.20;99.90;;;;;;4936214;29;20234;-83
2023/12/01 13:18:12;;;;;;;25.83;14.00;;;2.10;99.90;;;;;;4941096;29;20290;-83